sensor_id;sensor_type;location;lat;lon;timestamp;P1;durP1;ratioP1;P2;durP2;ratioP2
8399;SDS011;4237;47.030;15.396;2023-04-09T00:01:51;23.23;;;16.40;;
8399;SDS011;4237;47.030;15.396;2023-04-09T00:04:20;21.57;;;15.97;;
8399;SDS011;4237;47.030;15.396;2023-04-09T00:06:51;20.47;;;15.63;;
8399;SDS011;4237;47.030;15.396;2023-04-09T00:09:19;20.70;;;15.60;;
8399;SDS011;4237;47.030;15.396;2023-04-09T00:11:47;21.60;;;16.13;;
8399;SDS011;4237;47.030;15.396;2023-04-09T00:14:15;19.53;;;14.47;;
8399;SDS011;4237;47.030;15.396;2023-04-09T00:16:44;20.30;;;15.10;;
8399;SDS011;4237;47.030;15.396;2023-04-09T00:19:12;20.73;;;14.83;;
8399;SDS011;4237;47.030;15.396;2023-04-09T00:21:40;21.83;;;15.67;;
8399;SDS011;4237;47.030;15.396;2023-04-09T00:24:08;22.57;;;16.27;;
8399;SDS011;4237;47.030;15.396;2023-04-09T00:29:24;19.97;;;15.13;;
8399;SDS011;4237;47.030;15.396;2023-04-09T00:31:53;20.17;;;14.83;;
8399;SDS011;4237;47.030;15.396;2023-04-09T00:34:22;23.63;;;16.17;;
8399;SDS011;4237;47.030;15.396;2023-04-09T00:36:50;21.90;;;16.10;;
8399;SDS011;4237;47.030;15.396;2023-04-09T00:39:18;21.63;;;15.30;;
8399;SDS011;4237;47.030;15.396;2023-04-09T00:41:46;20.97;;;15.63;;
8399;SDS011;4237;47.030;15.396;2023-04-09T00:44:14;23.67;;;15.90;;
8399;SDS011;4237;47.030;15.396;2023-04-09T00:46:42;30.13;;;19.37;;
8399;SDS011;4237;47.030;15.396;2023-04-09T00:49:11;28.63;;;19.50;;
8399;SDS011;4237;47.030;15.396;2023-04-09T00:51:39;22.60;;;16.93;;
8399;SDS011;4237;47.030;15.396;2023-04-09T00:54:10;20.60;;;15.83;;
8399;SDS011;4237;47.030;15.396;2023-04-09T00:56:39;23.33;;;16.23;;
8399;SDS011;4237;47.030;15.396;2023-04-09T00:59:08;19.37;;;14.43;;
8399;SDS011;4237;47.030;15.396;2023-04-09T01:01:36;17.23;;;14.43;;
8399;SDS011;4237;47.030;15.396;2023-04-09T01:04:04;20.50;;;14.93;;
8399;SDS011;4237;47.030;15.396;2023-04-09T01:06:44;23.33;;;18.97;;
8399;SDS011;4237;47.030;15.396;2023-04-09T01:11:42;25.77;;;21.93;;
8399;SDS011;4237;47.030;15.396;2023-04-09T01:16:59;18.00;;;14.23;;
8399;SDS011;4237;47.030;15.396;2023-04-09T01:19:34;17.80;;;12.53;;
8399;SDS011;4237;47.030;15.396;2023-04-09T01:22:02;17.50;;;12.77;;
8399;SDS011;4237;47.030;15.396;2023-04-09T01:27:05;15.67;;;12.17;;
8399;SDS011;4237;47.030;15.396;2023-04-09T01:29:37;16.90;;;12.80;;
8399;SDS011;4237;47.030;15.396;2023-04-09T01:32:04;18.40;;;13.87;;
8399;SDS011;4237;47.030;15.396;2023-04-09T01:34:34;17.37;;;13.53;;
8399;SDS011;4237;47.030;15.396;2023-04-09T01:37:04;17.90;;;14.07;;
8399;SDS011;4237;47.030;15.396;2023-04-09T01:39:33;16.87;;;13.20;;
8399;SDS011;4237;47.030;15.396;2023-04-09T01:42:02;17.73;;;14.20;;
8399;SDS011;4237;47.030;15.396;2023-04-09T01:44:51;19.30;;;15.30;;
8399;SDS011;4237;47.030;15.396;2023-04-09T01:47:20;19.80;;;14.40;;
8399;SDS011;4237;47.030;15.396;2023-04-09T01:49:48;18.87;;;15.67;;
8399;SDS011;4237;47.030;15.396;2023-04-09T01:52:17;15.83;;;12.33;;
8399;SDS011;4237;47.030;15.396;2023-04-09T01:54:45;14.23;;;10.90;;
8399;SDS011;4237;47.030;15.396;2023-04-09T01:57:13;23.60;;;20.33;;
8399;SDS011;4237;47.030;15.396;2023-04-09T01:59:42;26.60;;;21.77;;
8399;SDS011;4237;47.030;15.396;2023-04-09T02:02:11;22.33;;;18.83;;
8399;SDS011;4237;47.030;15.396;2023-04-09T02:04:41;17.17;;;14.30;;
8399;SDS011;4237;47.030;15.396;2023-04-09T02:07:11;15.30;;;10.67;;
8399;SDS011;4237;47.030;15.396;2023-04-09T02:09:39;13.23;;;10.10;;
8399;SDS011;4237;47.030;15.396;2023-04-09T02:12:09;12.90;;;10.13;;
8399;SDS011;4237;47.030;15.396;2023-04-09T02:14:38;13.10;;;9.90;;
8399;SDS011;4237;47.030;15.396;2023-04-09T02:17:07;11.53;;;9.50;;
8399;SDS011;4237;47.030;15.396;2023-04-09T02:19:42;12.00;;;9.97;;
8399;SDS011;4237;47.030;15.396;2023-04-09T02:22:11;14.57;;;10.30;;
8399;SDS011;4237;47.030;15.396;2023-04-09T02:24:39;13.77;;;10.20;;
8399;SDS011;4237;47.030;15.396;2023-04-09T02:27:08;13.93;;;9.33;;
8399;SDS011;4237;47.030;15.396;2023-04-09T02:29:37;14.63;;;10.17;;
8399;SDS011;4237;47.030;15.396;2023-04-09T02:32:05;13.43;;;10.60;;
8399;SDS011;4237;47.030;15.396;2023-04-09T02:34:33;13.53;;;10.50;;
8399;SDS011;4237;47.030;15.396;2023-04-09T02:37:02;14.30;;;11.80;;
8399;SDS011;4237;47.030;15.396;2023-04-09T02:39:30;14.47;;;11.50;;
8399;SDS011;4237;47.030;15.396;2023-04-09T02:41:58;11.57;;;8.77;;
8399;SDS011;4237;47.030;15.396;2023-04-09T02:44:27;10.67;;;8.17;;
8399;SDS011;4237;47.030;15.396;2023-04-09T02:46:55;9.60;;;7.60;;
8399;SDS011;4237;47.030;15.396;2023-04-09T02:49:24;12.70;;;9.17;;
8399;SDS011;4237;47.030;15.396;2023-04-09T02:51:52;13.87;;;9.80;;
8399;SDS011;4237;47.030;15.396;2023-04-09T02:54:20;14.40;;;10.53;;
8399;SDS011;4237;47.030;15.396;2023-04-09T02:56:48;16.93;;;11.47;;
8399;SDS011;4237;47.030;15.396;2023-04-09T02:59:16;16.07;;;11.67;;
8399;SDS011;4237;47.030;15.396;2023-04-09T03:01:45;17.47;;;11.80;;
8399;SDS011;4237;47.030;15.396;2023-04-09T03:04:13;15.20;;;11.20;;
8399;SDS011;4237;47.030;15.396;2023-04-09T03:06:41;14.27;;;10.70;;
8399;SDS011;4237;47.030;15.396;2023-04-09T03:09:09;19.13;;;14.73;;
8399;SDS011;4237;47.030;15.396;2023-04-09T03:11:37;19.63;;;16.63;;
8399;SDS011;4237;47.030;15.396;2023-04-09T03:14:06;17.00;;;13.77;;
8399;SDS011;4237;47.030;15.396;2023-04-09T03:16:34;15.93;;;11.87;;
8399;SDS011;4237;47.030;15.396;2023-04-09T03:19:02;17.80;;;13.50;;
8399;SDS011;4237;47.030;15.396;2023-04-09T03:21:30;14.70;;;10.97;;
8399;SDS011;4237;47.030;15.396;2023-04-09T03:23:59;11.83;;;9.10;;
8399;SDS011;4237;47.030;15.396;2023-04-09T03:26:28;13.10;;;9.67;;
8399;SDS011;4237;47.030;15.396;2023-04-09T03:28:58;12.20;;;9.30;;
8399;SDS011;4237;47.030;15.396;2023-04-09T03:31:26;11.40;;;8.73;;
8399;SDS011;4237;47.030;15.396;2023-04-09T03:33:55;11.37;;;8.70;;
8399;SDS011;4237;47.030;15.396;2023-04-09T03:36:23;11.13;;;8.70;;
8399;SDS011;4237;47.030;15.396;2023-04-09T03:38:53;13.70;;;10.60;;
8399;SDS011;4237;47.030;15.396;2023-04-09T03:41:21;11.90;;;9.43;;
8399;SDS011;4237;47.030;15.396;2023-04-09T03:43:49;11.13;;;8.73;;
8399;SDS011;4237;47.030;15.396;2023-04-09T03:46:17;14.10;;;9.20;;
8399;SDS011;4237;47.030;15.396;2023-04-09T03:48:46;12.20;;;8.93;;
8399;SDS011;4237;47.030;15.396;2023-04-09T03:51:14;11.20;;;8.90;;
8399;SDS011;4237;47.030;15.396;2023-04-09T03:53:43;12.53;;;8.73;;
8399;SDS011;4237;47.030;15.396;2023-04-09T03:56:11;12.00;;;9.13;;
8399;SDS011;4237;47.030;15.396;2023-04-09T03:58:39;10.57;;;8.03;;
8399;SDS011;4237;47.030;15.396;2023-04-09T04:01:07;11.97;;;8.90;;
8399;SDS011;4237;47.030;15.396;2023-04-09T04:03:36;11.03;;;8.77;;
8399;SDS011;4237;47.030;15.396;2023-04-09T04:06:04;13.50;;;9.77;;
8399;SDS011;4237;47.030;15.396;2023-04-09T04:08:32;13.83;;;9.90;;
8399;SDS011;4237;47.030;15.396;2023-04-09T04:11:03;12.40;;;9.73;;
8399;SDS011;4237;47.030;15.396;2023-04-09T04:13:31;15.10;;;10.97;;
8399;SDS011;4237;47.030;15.396;2023-04-09T04:19:08;14.00;;;9.43;;
8399;SDS011;4237;47.030;15.396;2023-04-09T04:21:36;14.60;;;10.83;;
8399;SDS011;4237;47.030;15.396;2023-04-09T04:24:04;16.83;;;11.27;;
8399;SDS011;4237;47.030;15.396;2023-04-09T04:26:33;15.30;;;11.87;;
8399;SDS011;4237;47.030;15.396;2023-04-09T04:29:01;17.77;;;13.07;;
8399;SDS011;4237;47.030;15.396;2023-04-09T04:31:29;16.60;;;12.30;;
8399;SDS011;4237;47.030;15.396;2023-04-09T04:33:57;16.63;;;11.97;;
8399;SDS011;4237;47.030;15.396;2023-04-09T04:36:26;16.03;;;11.37;;
8399;SDS011;4237;47.030;15.396;2023-04-09T04:38:54;15.97;;;11.00;;
8399;SDS011;4237;47.030;15.396;2023-04-09T04:41:23;14.40;;;10.83;;
8399;SDS011;4237;47.030;15.396;2023-04-09T04:43:51;20.17;;;12.07;;
8399;SDS011;4237;47.030;15.396;2023-04-09T04:46:20;14.80;;;11.10;;
8399;SDS011;4237;47.030;15.396;2023-04-09T04:48:48;19.97;;;16.23;;
8399;SDS011;4237;47.030;15.396;2023-04-09T04:51:16;20.70;;;15.70;;
8399;SDS011;4237;47.030;15.396;2023-04-09T04:53:44;16.27;;;12.20;;
8399;SDS011;4237;47.030;15.396;2023-04-09T04:56:13;13.23;;;9.97;;
8399;SDS011;4237;47.030;15.396;2023-04-09T04:58:41;15.47;;;11.03;;
8399;SDS011;4237;47.030;15.396;2023-04-09T05:01:10;14.07;;;10.33;;
8399;SDS011;4237;47.030;15.396;2023-04-09T05:03:38;27.90;;;22.03;;
8399;SDS011;4237;47.030;15.396;2023-04-09T05:06:06;22.87;;;18.00;;
8399;SDS011;4237;47.030;15.396;2023-04-09T05:08:35;17.77;;;14.03;;
8399;SDS011;4237;47.030;15.396;2023-04-09T05:11:03;16.37;;;10.83;;
8399;SDS011;4237;47.030;15.396;2023-04-09T05:13:31;13.73;;;10.23;;
8399;SDS011;4237;47.030;15.396;2023-04-09T05:16:00;14.10;;;10.17;;
8399;SDS011;4237;47.030;15.396;2023-04-09T05:18:28;12.30;;;9.17;;
8399;SDS011;4237;47.030;15.396;2023-04-09T05:20:57;13.70;;;9.47;;
8399;SDS011;4237;47.030;15.396;2023-04-09T05:23:25;14.00;;;10.13;;
8399;SDS011;4237;47.030;15.396;2023-04-09T05:25:53;15.20;;;11.63;;
8399;SDS011;4237;47.030;15.396;2023-04-09T05:28:22;16.90;;;12.30;;
8399;SDS011;4237;47.030;15.396;2023-04-09T05:30:50;16.40;;;13.23;;
8399;SDS011;4237;47.030;15.396;2023-04-09T05:33:18;17.77;;;12.60;;
8399;SDS011;4237;47.030;15.396;2023-04-09T05:35:46;16.43;;;12.27;;
8399;SDS011;4237;47.030;15.396;2023-04-09T05:38:15;17.90;;;12.97;;
8399;SDS011;4237;47.030;15.396;2023-04-09T05:40:43;17.90;;;13.40;;
8399;SDS011;4237;47.030;15.396;2023-04-09T05:43:12;14.40;;;11.87;;
8399;SDS011;4237;47.030;15.396;2023-04-09T05:45:40;17.43;;;12.37;;
8399;SDS011;4237;47.030;15.396;2023-04-09T05:48:08;16.70;;;12.33;;
8399;SDS011;4237;47.030;15.396;2023-04-09T05:50:36;13.47;;;11.20;;
8399;SDS011;4237;47.030;15.396;2023-04-09T05:53:05;15.87;;;11.40;;
8399;SDS011;4237;47.030;15.396;2023-04-09T05:55:33;14.03;;;10.80;;
8399;SDS011;4237;47.030;15.396;2023-04-09T05:58:02;14.43;;;10.90;;
8399;SDS011;4237;47.030;15.396;2023-04-09T06:00:30;13.63;;;10.70;;
8399;SDS011;4237;47.030;15.396;2023-04-09T06:02:58;16.70;;;11.73;;
8399;SDS011;4237;47.030;15.396;2023-04-09T06:05:26;14.80;;;10.67;;
8399;SDS011;4237;47.030;15.396;2023-04-09T06:07:55;14.87;;;11.40;;
8399;SDS011;4237;47.030;15.396;2023-04-09T06:10:23;12.73;;;10.37;;
8399;SDS011;4237;47.030;15.396;2023-04-09T06:12:51;13.40;;;10.50;;
8399;SDS011;4237;47.030;15.396;2023-04-09T06:15:19;13.70;;;10.30;;
8399;SDS011;4237;47.030;15.396;2023-04-09T06:17:47;13.07;;;10.07;;
8399;SDS011;4237;47.030;15.396;2023-04-09T06:20:16;13.60;;;11.40;;
8399;SDS011;4237;47.030;15.396;2023-04-09T06:22:44;13.47;;;10.27;;
8399;SDS011;4237;47.030;15.396;2023-04-09T06:25:12;12.47;;;9.73;;
8399;SDS011;4237;47.030;15.396;2023-04-09T06:27:40;13.73;;;9.93;;
8399;SDS011;4237;47.030;15.396;2023-04-09T06:30:09;12.40;;;9.37;;
8399;SDS011;4237;47.030;15.396;2023-04-09T06:32:37;12.27;;;10.47;;
8399;SDS011;4237;47.030;15.396;2023-04-09T06:35:06;10.63;;;9.50;;
8399;SDS011;4237;47.030;15.396;2023-04-09T06:37:34;12.03;;;9.23;;
8399;SDS011;4237;47.030;15.396;2023-04-09T06:42:50;12.47;;;10.60;;
8399;SDS011;4237;47.030;15.396;2023-04-09T06:45:18;11.13;;;9.27;;
8399;SDS011;4237;47.030;15.396;2023-04-09T06:47:47;11.40;;;9.60;;
8399;SDS011;4237;47.030;15.396;2023-04-09T06:50:15;11.80;;;9.17;;
8399;SDS011;4237;47.030;15.396;2023-04-09T06:52:43;9.37;;;8.00;;
8399;SDS011;4237;47.030;15.396;2023-04-09T06:55:11;10.30;;;8.23;;
8399;SDS011;4237;47.030;15.396;2023-04-09T06:57:40;9.70;;;8.27;;
8399;SDS011;4237;47.030;15.396;2023-04-09T07:00:09;10.07;;;7.27;;
8399;SDS011;4237;47.030;15.396;2023-04-09T07:02:37;9.27;;;8.17;;
8399;SDS011;4237;47.030;15.396;2023-04-09T07:05:06;9.47;;;7.10;;
8399;SDS011;4237;47.030;15.396;2023-04-09T07:07:35;9.27;;;7.80;;
8399;SDS011;4237;47.030;15.396;2023-04-09T07:10:03;8.70;;;7.20;;
8399;SDS011;4237;47.030;15.396;2023-04-09T07:12:33;9.70;;;8.53;;
8399;SDS011;4237;47.030;15.396;2023-04-09T07:15:05;11.70;;;10.10;;
8399;SDS011;4237;47.030;15.396;2023-04-09T07:17:33;16.67;;;12.93;;
8399;SDS011;4237;47.030;15.396;2023-04-09T07:20:02;14.27;;;10.67;;
8399;SDS011;4237;47.030;15.396;2023-04-09T07:22:30;10.10;;;8.17;;
8399;SDS011;4237;47.030;15.396;2023-04-09T07:24:58;14.57;;;10.93;;
8399;SDS011;4237;47.030;15.396;2023-04-09T07:27:27;12.57;;;10.20;;
8399;SDS011;4237;47.030;15.396;2023-04-09T07:29:55;11.10;;;8.97;;
8399;SDS011;4237;47.030;15.396;2023-04-09T07:32:25;13.57;;;12.10;;
8399;SDS011;4237;47.030;15.396;2023-04-09T07:34:54;11.33;;;10.13;;
8399;SDS011;4237;47.030;15.396;2023-04-09T07:44:46;9.83;;;8.83;;
8399;SDS011;4237;47.030;15.396;2023-04-09T07:47:14;8.53;;;7.60;;
8399;SDS011;4237;47.030;15.396;2023-04-09T07:49:42;7.93;;;7.13;;
8399;SDS011;4237;47.030;15.396;2023-04-09T09:06:06;6.70;;;6.00;;
8399;SDS011;4237;47.030;15.396;2023-04-09T09:08:35;7.50;;;6.63;;
8399;SDS011;4237;47.030;15.396;2023-04-09T09:11:04;8.23;;;6.97;;
8399;SDS011;4237;47.030;15.396;2023-04-09T09:13:32;7.47;;;6.77;;
8399;SDS011;4237;47.030;15.396;2023-04-09T09:16:13;8.65;;;6.50;;
8399;SDS011;4237;47.030;15.396;2023-04-09T09:18:43;6.30;;;5.63;;
8399;SDS011;4237;47.030;15.396;2023-04-09T09:28:33;7.80;;;6.70;;
8399;SDS011;4237;47.030;15.396;2023-04-09T09:31:10;7.73;;;6.40;;
8399;SDS011;4237;47.030;15.396;2023-04-09T09:33:38;7.93;;;6.90;;
8399;SDS011;4237;47.030;15.396;2023-04-09T09:36:07;9.03;;;7.00;;
8399;SDS011;4237;47.030;15.396;2023-04-09T09:38:55;7.73;;;6.80;;
8399;SDS011;4237;47.030;15.396;2023-04-09T09:41:15;7.90;;;6.70;;
8399;SDS011;4237;47.030;15.396;2023-04-09T09:43:44;8.17;;;7.33;;
8399;SDS011;4237;47.030;15.396;2023-04-09T09:46:12;10.97;;;8.37;;
8399;SDS011;4237;47.030;15.396;2023-04-09T09:49:01;9.97;;;7.87;;
8399;SDS011;4237;47.030;15.396;2023-04-09T09:51:30;9.80;;;7.50;;
8399;SDS011;4237;47.030;15.396;2023-04-09T09:53:58;10.20;;;8.07;;
8399;SDS011;4237;47.030;15.396;2023-04-09T09:56:30;9.03;;;7.83;;
8399;SDS011;4237;47.030;15.396;2023-04-09T10:01:30;10.60;;;8.17;;
8399;SDS011;4237;47.030;15.396;2023-04-09T10:03:59;11.17;;;8.57;;
8399;SDS011;4237;47.030;15.396;2023-04-09T10:08:57;7.67;;;6.70;;
8399;SDS011;4237;47.030;15.396;2023-04-09T10:33:35;4.97;;;4.47;;
8399;SDS011;4237;47.030;15.396;2023-04-09T10:36:13;4.73;;;4.20;;
8399;SDS011;4237;47.030;15.396;2023-04-09T10:41:20;4.63;;;4.10;;
8399;SDS011;4237;47.030;15.396;2023-04-09T10:56:04;4.23;;;3.83;;
8399;SDS011;4237;47.030;15.396;2023-04-09T10:58:32;3.23;;;2.93;;
8399;SDS011;4237;47.030;15.396;2023-04-09T11:01:01;3.17;;;2.87;;
8399;SDS011;4237;47.030;15.396;2023-04-09T11:03:29;4.27;;;3.30;;
8399;SDS011;4237;47.030;15.396;2023-04-09T12:22:15;3.80;;;3.50;;
8399;SDS011;4237;47.030;15.396;2023-04-09T13:26:29;3.40;;;3.10;;
8399;SDS011;4237;47.030;15.396;2023-04-09T13:28:57;3.03;;;2.73;;
8399;SDS011;4237;47.030;15.396;2023-04-09T13:31:26;7.13;;;4.03;;
8399;SDS011;4237;47.030;15.396;2023-04-09T13:33:54;2.67;;;2.40;;
8399;SDS011;4237;47.030;15.396;2023-04-09T13:36:22;3.33;;;2.70;;
8399;SDS011;4237;47.030;15.396;2023-04-09T13:38:50;2.87;;;2.67;;
8399;SDS011;4237;47.030;15.396;2023-04-09T13:41:19;3.47;;;2.60;;
8399;SDS011;4237;47.030;15.396;2023-04-09T13:43:47;3.00;;;2.67;;
8399;SDS011;4237;47.030;15.396;2023-04-09T13:46:15;2.50;;;2.30;;
8399;SDS011;4237;47.030;15.396;2023-04-09T13:48:43;2.47;;;2.27;;
8399;SDS011;4237;47.030;15.396;2023-04-09T16:41:23;6.13;;;4.60;;
8399;SDS011;4237;47.030;15.396;2023-04-09T16:43:51;6.07;;;5.30;;
8399;SDS011;4237;47.030;15.396;2023-04-09T16:48:46;6.90;;;5.35;;
8399;SDS011;4237;47.030;15.396;2023-04-09T16:51:15;5.47;;;4.80;;
8399;SDS011;4237;47.030;15.396;2023-04-09T16:53:43;5.27;;;4.57;;
8399;SDS011;4237;47.030;15.396;2023-04-09T16:56:12;5.93;;;4.97;;
8399;SDS011;4237;47.030;15.396;2023-04-09T16:58:42;7.17;;;5.33;;
8399;SDS011;4237;47.030;15.396;2023-04-09T17:01:10;7.27;;;5.50;;
8399;SDS011;4237;47.030;15.396;2023-04-09T17:03:39;6.63;;;4.93;;
8399;SDS011;4237;47.030;15.396;2023-04-09T17:06:07;8.63;;;5.00;;
8399;SDS011;4237;47.030;15.396;2023-04-09T17:08:35;6.00;;;5.33;;
8399;SDS011;4237;47.030;15.396;2023-04-09T17:11:03;5.93;;;5.00;;
8399;SDS011;4237;47.030;15.396;2023-04-09T17:13:32;6.77;;;5.17;;
8399;SDS011;4237;47.030;15.396;2023-04-09T17:16:04;5.50;;;4.53;;
8399;SDS011;4237;47.030;15.396;2023-04-09T17:18:32;6.30;;;4.70;;
8399;SDS011;4237;47.030;15.396;2023-04-09T17:21:00;7.30;;;5.43;;
8399;SDS011;4237;47.030;15.396;2023-04-09T17:23:29;7.70;;;5.93;;
8399;SDS011;4237;47.030;15.396;2023-04-09T17:25:58;7.70;;;5.73;;
8399;SDS011;4237;47.030;15.396;2023-04-09T17:28:26;9.23;;;6.17;;
8399;SDS011;4237;47.030;15.396;2023-04-09T17:30:54;8.43;;;6.10;;
8399;SDS011;4237;47.030;15.396;2023-04-09T17:33:23;7.20;;;5.87;;
8399;SDS011;4237;47.030;15.396;2023-04-09T17:35:51;8.23;;;5.90;;
8399;SDS011;4237;47.030;15.396;2023-04-09T17:38:19;7.63;;;6.57;;
8399;SDS011;4237;47.030;15.396;2023-04-09T17:40:47;11.23;;;9.13;;
8399;SDS011;4237;47.030;15.396;2023-04-09T17:43:16;11.50;;;7.30;;
8399;SDS011;4237;47.030;15.396;2023-04-09T17:45:44;9.13;;;7.07;;
8399;SDS011;4237;47.030;15.396;2023-04-09T17:48:12;8.43;;;6.50;;
8399;SDS011;4237;47.030;15.396;2023-04-09T17:50:40;7.97;;;6.43;;
8399;SDS011;4237;47.030;15.396;2023-04-09T17:53:09;7.17;;;6.10;;
8399;SDS011;4237;47.030;15.396;2023-04-09T17:55:37;7.83;;;6.20;;
8399;SDS011;4237;47.030;15.396;2023-04-09T17:58:05;7.57;;;6.30;;
8399;SDS011;4237;47.030;15.396;2023-04-09T18:00:33;11.00;;;9.73;;
8399;SDS011;4237;47.030;15.396;2023-04-09T18:03:02;8.57;;;6.23;;
8399;SDS011;4237;47.030;15.396;2023-04-09T18:05:32;10.90;;;7.60;;
8399;SDS011;4237;47.030;15.396;2023-04-09T18:08:01;14.57;;;6.70;;
8399;SDS011;4237;47.030;15.396;2023-04-09T18:10:29;13.47;;;8.37;;
8399;SDS011;4237;47.030;15.396;2023-04-09T18:12:57;13.43;;;8.67;;
8399;SDS011;4237;47.030;15.396;2023-04-09T18:15:25;12.23;;;9.33;;
8399;SDS011;4237;47.030;15.396;2023-04-09T18:17:53;11.43;;;8.67;;
8399;SDS011;4237;47.030;15.396;2023-04-09T18:20:22;10.83;;;6.73;;
8399;SDS011;4237;47.030;15.396;2023-04-09T18:22:50;10.70;;;7.65;;
8399;SDS011;4237;47.030;15.396;2023-04-09T18:25:20;8.13;;;7.10;;
8399;SDS011;4237;47.030;15.396;2023-04-09T18:27:49;10.67;;;8.63;;
8399;SDS011;4237;47.030;15.396;2023-04-09T18:30:17;10.10;;;7.77;;
8399;SDS011;4237;47.030;15.396;2023-04-09T18:32:45;9.53;;;7.90;;
8399;SDS011;4237;47.030;15.396;2023-04-09T18:35:14;5.23;;;4.70;;
8399;SDS011;4237;47.030;15.396;2023-04-09T18:37:43;6.70;;;6.00;;
8399;SDS011;4237;47.030;15.396;2023-04-09T18:40:12;6.97;;;5.77;;
8399;SDS011;4237;47.030;15.396;2023-04-09T18:42:48;5.33;;;3.83;;
8399;SDS011;4237;47.030;15.396;2023-04-09T18:45:14;4.30;;;3.80;;
8399;SDS011;4237;47.030;15.396;2023-04-09T18:47:42;5.20;;;4.03;;
8399;SDS011;4237;47.030;15.396;2023-04-09T18:50:11;5.07;;;4.50;;
8399;SDS011;4237;47.030;15.396;2023-04-09T18:52:41;8.57;;;5.70;;
8399;SDS011;4237;47.030;15.396;2023-04-09T18:55:10;8.90;;;6.63;;
8399;SDS011;4237;47.030;15.396;2023-04-09T18:57:41;8.60;;;5.77;;
8399;SDS011;4237;47.030;15.396;2023-04-09T19:00:10;6.13;;;4.70;;
8399;SDS011;4237;47.030;15.396;2023-04-09T19:02:39;9.17;;;5.47;;
8399;SDS011;4237;47.030;15.396;2023-04-09T19:05:07;9.27;;;5.73;;
8399;SDS011;4237;47.030;15.396;2023-04-09T19:07:36;6.60;;;5.30;;
8399;SDS011;4237;47.030;15.396;2023-04-09T19:10:05;5.53;;;4.93;;
8399;SDS011;4237;47.030;15.396;2023-04-09T19:12:33;5.70;;;4.73;;
8399;SDS011;4237;47.030;15.396;2023-04-09T19:15:23;6.70;;;4.43;;
8399;SDS011;4237;47.030;15.396;2023-04-09T19:17:57;5.70;;;4.27;;
8399;SDS011;4237;47.030;15.396;2023-04-09T19:20:25;5.43;;;4.40;;
8399;SDS011;4237;47.030;15.396;2023-04-09T19:22:54;5.13;;;4.10;;
8399;SDS011;4237;47.030;15.396;2023-04-09T19:25:23;7.37;;;5.20;;
8399;SDS011;4237;47.030;15.396;2023-04-09T19:27:51;5.30;;;4.47;;
8399;SDS011;4237;47.030;15.396;2023-04-09T19:30:20;6.20;;;5.20;;
8399;SDS011;4237;47.030;15.396;2023-04-09T19:32:48;5.77;;;4.53;;
8399;SDS011;4237;47.030;15.396;2023-04-09T19:35:19;6.43;;;5.03;;
8399;SDS011;4237;47.030;15.396;2023-04-09T19:37:48;7.40;;;5.37;;
8399;SDS011;4237;47.030;15.396;2023-04-09T19:40:16;6.07;;;4.83;;
8399;SDS011;4237;47.030;15.396;2023-04-09T19:42:44;6.63;;;4.97;;
8399;SDS011;4237;47.030;15.396;2023-04-09T19:45:12;5.87;;;4.97;;
8399;SDS011;4237;47.030;15.396;2023-04-09T19:47:40;7.30;;;5.57;;
8399;SDS011;4237;47.030;15.396;2023-04-09T19:50:09;7.67;;;5.93;;
8399;SDS011;4237;47.030;15.396;2023-04-09T19:52:58;7.00;;;5.63;;
8399;SDS011;4237;47.030;15.396;2023-04-09T19:55:26;8.70;;;6.13;;
8399;SDS011;4237;47.030;15.396;2023-04-09T19:57:54;10.23;;;6.60;;
8399;SDS011;4237;47.030;15.396;2023-04-09T20:00:22;7.27;;;5.73;;
8399;SDS011;4237;47.030;15.396;2023-04-09T20:02:51;6.00;;;5.23;;
8399;SDS011;4237;47.030;15.396;2023-04-09T20:05:20;8.13;;;5.53;;
8399;SDS011;4237;47.030;15.396;2023-04-09T20:07:48;6.10;;;4.90;;
8399;SDS011;4237;47.030;15.396;2023-04-09T20:10:18;6.67;;;5.17;;
8399;SDS011;4237;47.030;15.396;2023-04-09T20:12:47;7.60;;;5.70;;
8399;SDS011;4237;47.030;15.396;2023-04-09T20:15:15;7.33;;;5.37;;
8399;SDS011;4237;47.030;15.396;2023-04-09T20:17:46;8.73;;;5.50;;
8399;SDS011;4237;47.030;15.396;2023-04-09T20:20:14;6.70;;;5.20;;
8399;SDS011;4237;47.030;15.396;2023-04-09T20:22:46;6.97;;;4.80;;
8399;SDS011;4237;47.030;15.396;2023-04-09T20:25:16;6.20;;;4.90;;
8399;SDS011;4237;47.030;15.396;2023-04-09T20:27:44;7.93;;;5.30;;
8399;SDS011;4237;47.030;15.396;2023-04-09T20:30:13;6.97;;;4.93;;
8399;SDS011;4237;47.030;15.396;2023-04-09T20:33:03;6.93;;;5.00;;
8399;SDS011;4237;47.030;15.396;2023-04-09T20:35:34;6.13;;;5.30;;
8399;SDS011;4237;47.030;15.396;2023-04-09T20:38:02;6.30;;;4.70;;
8399;SDS011;4237;47.030;15.396;2023-04-09T20:40:31;5.67;;;4.93;;
8399;SDS011;4237;47.030;15.396;2023-04-09T20:42:59;6.00;;;5.00;;
8399;SDS011;4237;47.030;15.396;2023-04-09T20:45:27;8.80;;;4.93;;
8399;SDS011;4237;47.030;15.396;2023-04-09T20:47:55;6.63;;;5.10;;
8399;SDS011;4237;47.030;15.396;2023-04-09T20:50:23;5.90;;;4.80;;
8399;SDS011;4237;47.030;15.396;2023-04-09T20:52:52;7.07;;;5.53;;
8399;SDS011;4237;47.030;15.396;2023-04-09T20:55:20;5.20;;;4.70;;
8399;SDS011;4237;47.030;15.396;2023-04-09T20:57:48;6.43;;;5.00;;
8399;SDS011;4237;47.030;15.396;2023-04-09T21:00:16;5.50;;;4.70;;
8399;SDS011;4237;47.030;15.396;2023-04-09T21:02:45;5.87;;;4.70;;
8399;SDS011;4237;47.030;15.396;2023-04-09T21:05:13;6.87;;;5.03;;
8399;SDS011;4237;47.030;15.396;2023-04-09T21:07:41;6.00;;;4.77;;
8399;SDS011;4237;47.030;15.396;2023-04-09T21:10:09;5.13;;;4.60;;
8399;SDS011;4237;47.030;15.396;2023-04-09T21:12:38;7.03;;;5.07;;
8399;SDS011;4237;47.030;15.396;2023-04-09T21:15:07;6.43;;;5.17;;
8399;SDS011;4237;47.030;15.396;2023-04-09T21:17:35;13.30;;;8.03;;
8399;SDS011;4237;47.030;15.396;2023-04-09T21:20:03;9.70;;;7.10;;
8399;SDS011;4237;47.030;15.396;2023-04-09T21:22:32;9.37;;;6.70;;
8399;SDS011;4237;47.030;15.396;2023-04-09T21:25:01;9.53;;;6.63;;
8399;SDS011;4237;47.030;15.396;2023-04-09T21:27:29;10.33;;;6.97;;
8399;SDS011;4237;47.030;15.396;2023-04-09T21:29:57;8.93;;;6.63;;
8399;SDS011;4237;47.030;15.396;2023-04-09T21:32:26;11.37;;;7.27;;
8399;SDS011;4237;47.030;15.396;2023-04-09T21:34:54;7.37;;;6.13;;
8399;SDS011;4237;47.030;15.396;2023-04-09T21:37:23;9.17;;;6.67;;
8399;SDS011;4237;47.030;15.396;2023-04-09T21:39:51;8.30;;;6.20;;
8399;SDS011;4237;47.030;15.396;2023-04-09T21:42:19;8.87;;;6.03;;
8399;SDS011;4237;47.030;15.396;2023-04-09T21:44:47;7.97;;;6.50;;
8399;SDS011;4237;47.030;15.396;2023-04-09T21:47:15;9.30;;;5.90;;
8399;SDS011;4237;47.030;15.396;2023-04-09T21:49:44;7.17;;;5.63;;
8399;SDS011;4237;47.030;15.396;2023-04-09T21:52:12;5.67;;;4.73;;
8399;SDS011;4237;47.030;15.396;2023-04-09T21:54:41;7.90;;;5.97;;
8399;SDS011;4237;47.030;15.396;2023-04-09T21:57:10;6.87;;;5.57;;
8399;SDS011;4237;47.030;15.396;2023-04-09T21:59:38;6.53;;;4.87;;
8399;SDS011;4237;47.030;15.396;2023-04-09T22:02:07;6.10;;;4.83;;
8399;SDS011;4237;47.030;15.396;2023-04-09T22:04:35;7.00;;;5.67;;
8399;SDS011;4237;47.030;15.396;2023-04-09T22:07:04;6.97;;;5.37;;
8399;SDS011;4237;47.030;15.396;2023-04-09T22:09:33;6.97;;;5.23;;
8399;SDS011;4237;47.030;15.396;2023-04-09T22:12:01;7.27;;;5.43;;
8399;SDS011;4237;47.030;15.396;2023-04-09T22:14:30;6.63;;;4.70;;
8399;SDS011;4237;47.030;15.396;2023-04-09T22:16:58;7.70;;;5.93;;
8399;SDS011;4237;47.030;15.396;2023-04-09T22:19:28;10.67;;;7.10;;
8399;SDS011;4237;47.030;15.396;2023-04-09T22:21:57;9.40;;;6.33;;
8399;SDS011;4237;47.030;15.396;2023-04-09T22:24:25;12.00;;;7.40;;
8399;SDS011;4237;47.030;15.396;2023-04-09T22:26:55;8.90;;;5.90;;
8399;SDS011;4237;47.030;15.396;2023-04-09T22:29:25;6.93;;;5.53;;
8399;SDS011;4237;47.030;15.396;2023-04-09T22:31:54;7.33;;;5.27;;
8399;SDS011;4237;47.030;15.396;2023-04-09T22:34:22;6.73;;;5.07;;
8399;SDS011;4237;47.030;15.396;2023-04-09T22:36:50;5.57;;;4.67;;
8399;SDS011;4237;47.030;15.396;2023-04-09T22:39:19;6.70;;;4.70;;